sensor_id;sensor_type;location;lat;lon;timestamp;pressure;altitude;pressure_sealevel;temperature;humidity
61119;BME280;51448;51.660;5.824;2023-02-19T00:00:34;101635.69;;;10.37;100.00
61119;BME280;51448;51.660;5.824;2023-02-19T00:03:02;101642.69;;;10.38;100.00
61119;BME280;51448;51.660;5.824;2023-02-19T00:05:30;101647.94;;;10.38;100.00
61119;BME280;51448;51.660;5.824;2023-02-19T00:08:03;101640.94;;;10.37;100.00
61119;BME280;51448;51.660;5.824;2023-02-19T00:10:34;101627.84;;;10.36;100.00
61119;BME280;51448;51.660;5.824;2023-02-19T00:13:02;101641.84;;;10.35;100.00
61119;BME280;51448;51.660;5.824;2023-02-19T00:15:33;101655.03;;;10.33;100.00
61119;BME280;51448;51.660;5.824;2023-02-19T00:18:01;101638.41;;;10.31;100.00
61119;BME280;51448;51.660;5.824;2023-02-19T00:20:34;101631.41;;;10.30;100.00
61119;BME280;51448;51.660;5.824;2023-02-19T00:23:02;101642.78;;;10.31;100.00
61119;BME280;51448;51.660;5.824;2023-02-19T00:25:36;101638.44;;;10.26;100.00
61119;BME280;51448;51.660;5.824;2023-02-19T00:28:09;101646.34;;;10.25;100.00
61119;BME280;51448;51.660;5.824;2023-02-19T00:30:41;101638.50;;;10.23;100.00
61119;BME280;51448;51.660;5.824;2023-02-19T00:33:12;101638.53;;;10.20;100.00
61119;BME280;51448;51.660;5.824;2023-02-19T00:35:43;101642.91;;;10.20;100.00
61119;BME280;51448;51.660;5.824;2023-02-19T00:38:14;101644.72;;;10.16;100.00
61119;BME280;51448;51.660;5.824;2023-02-19T00:40:45;101647.41;;;10.12;100.00
61119;BME280;51448;51.660;5.824;2023-02-19T00:43:13;101636.03;;;10.10;100.00
61119;BME280;51448;51.660;5.824;2023-02-19T00:45:41;101640.44;;;10.09;100.00
61119;BME280;51448;51.660;5.824;2023-02-19T00:48:12;101646.56;;;10.10;100.00
61119;BME280;51448;51.660;5.824;2023-02-19T00:50:42;101635.19;;;10.09;100.00
61119;BME280;51448;51.660;5.824;2023-02-19T00:53:11;101645.72;;;10.07;100.00
61119;BME280;51448;51.660;5.824;2023-02-19T00:55:39;101651.81;;;10.08;100.00
61119;BME280;51448;51.660;5.824;2023-02-19T00:58:07;101641.31;;;10.06;100.00
61119;BME280;51448;51.660;5.824;2023-02-19T01:00:35;101657.09;;;10.06;100.00
61119;BME280;51448;51.660;5.824;2023-02-19T01:03:02;101657.09;;;10.06;100.00
61119;BME280;51448;51.660;5.824;2023-02-19T01:05:30;101656.22;;;10.06;100.00
61119;BME280;51448;51.660;5.824;2023-02-19T01:07:58;101655.38;;;10.05;100.00
61119;BME280;51448;51.660;5.824;2023-02-19T01:10:26;101658.00;;;10.04;100.00
61119;BME280;51448;51.660;5.824;2023-02-19T01:12:56;101659.78;;;10.03;100.00
61119;BME280;51448;51.660;5.824;2023-02-19T01:15:24;101654.53;;;10.02;100.00
61119;BME280;51448;51.660;5.824;2023-02-19T01:17:52;101651.91;;;10.00;100.00
61119;BME280;51448;51.660;5.824;2023-02-19T01:20:20;101658.06;;;9.99;100.00
61119;BME280;51448;51.660;5.824;2023-02-19T01:22:47;101666.81;;;10.00;100.00
61119;BME280;51448;51.660;5.824;2023-02-19T01:25:15;101659.84;;;9.99;100.00
61119;BME280;51448;51.660;5.824;2023-02-19T01:27:52;101668.59;;;9.99;100.00
61119;BME280;51448;51.660;5.824;2023-02-19T01:30:22;101674.72;;;9.98;100.00
61119;BME280;51448;51.660;5.824;2023-02-19T01:32:50;101663.34;;;9.98;100.00
61119;BME280;51448;51.660;5.824;2023-02-19T01:35:18;101669.50;;;9.97;100.00
61119;BME280;51448;51.660;5.824;2023-02-19T01:37:46;101677.38;;;9.97;100.00
61119;BME280;51448;51.660;5.824;2023-02-19T01:40:13;101674.78;;;9.95;100.00
61119;BME280;51448;51.660;5.824;2023-02-19T01:42:51;101681.75;;;9.96;100.00
61119;BME280;51448;51.660;5.824;2023-02-19T01:45:28;101685.28;;;9.95;100.00
61119;BME280;51448;51.660;5.824;2023-02-19T01:50:45;101669.50;;;9.95;100.00
61119;BME280;51448;51.660;5.824;2023-02-19T01:53:23;101677.41;;;9.94;100.00
61119;BME280;51448;51.660;5.824;2023-02-19T01:55:59;101687.06;;;9.93;100.00
61119;BME280;51448;51.660;5.824;2023-02-19T01:58:33;101680.03;;;9.92;100.00
61119;BME280;51448;51.660;5.824;2023-02-19T02:01:07;101690.56;;;9.92;100.00
61119;BME280;51448;51.660;5.824;2023-02-19T02:03:38;101674.78;;;9.92;100.00
61119;BME280;51448;51.660;5.824;2023-02-19T02:06:27;101672.16;;;9.92;100.00
61119;BME280;51448;51.660;5.824;2023-02-19T02:09:21;101678.31;;;9.91;100.00
61119;BME280;51448;51.660;5.824;2023-02-19T02:12:14;101689.69;;;9.90;100.00
61119;BME280;51448;51.660;5.824;2023-02-19T02:14:44;101681.81;;;9.90;100.00
61119;BME280;51448;51.660;5.824;2023-02-19T02:17:19;101678.31;;;9.91;100.00
61119;BME280;51448;51.660;5.824;2023-02-19T02:29:55;101673.13;;;9.86;100.00
61119;BME280;51448;51.660;5.824;2023-02-19T02:32:47;101674.00;;;9.87;100.00
61119;BME280;51448;51.660;5.824;2023-02-19T02:35:27;101678.38;;;9.86;100.00
61119;BME280;51448;51.660;5.824;2023-02-19T02:38:06;101673.13;;;9.86;100.00
61119;BME280;51448;51.660;5.824;2023-02-19T02:40:41;101676.63;;;9.87;100.00
61119;BME280;51448;51.660;5.824;2023-02-19T02:43:12;101678.38;;;9.86;100.00
61119;BME280;51448;51.660;5.824;2023-02-19T02:45:42;101678.38;;;9.86;100.00
61119;BME280;51448;51.660;5.824;2023-02-19T02:51:38;101681.00;;;9.86;100.00
61119;BME280;51448;51.660;5.824;2023-02-19T02:54:20;101681.03;;;9.85;100.00
61119;BME280;51448;51.660;5.824;2023-02-19T02:57:21;101692.44;;;9.81;100.00
61119;BME280;51448;51.660;5.824;2023-02-19T02:59:53;101687.22;;;9.78;100.00
61119;BME280;51448;51.660;5.824;2023-02-19T03:02:25;101690.81;;;9.71;100.00
61119;BME280;51448;51.660;5.824;2023-02-19T03:05:02;101684.72;;;9.67;100.00
61119;BME280;51448;51.660;5.824;2023-02-19T03:10:49;101697.00;;;9.65;100.00
61119;BME280;51448;51.660;5.824;2023-02-19T03:13:29;101702.25;;;9.63;100.00
61119;BME280;51448;51.660;5.824;2023-02-19T03:16:27;101703.16;;;9.62;100.00
61119;BME280;51448;51.660;5.824;2023-02-19T03:19:19;101712.81;;;9.62;100.00
61119;BME280;51448;51.660;5.824;2023-02-19T03:21:59;101708.41;;;9.62;100.00
61119;BME280;51448;51.660;5.824;2023-02-19T03:24:41;101709.28;;;9.61;100.00
61119;BME280;51448;51.660;5.824;2023-02-19T03:27:36;101713.69;;;9.59;100.00
61119;BME280;51448;51.660;5.824;2023-02-19T03:30:13;101717.19;;;9.60;100.00
61119;BME280;51448;51.660;5.824;2023-02-19T03:32:50;101717.19;;;9.60;100.00
61119;BME280;51448;51.660;5.824;2023-02-19T03:35:26;101709.34;;;9.57;100.00
61119;BME280;51448;51.660;5.824;2023-02-19T03:38:06;101711.97;;;9.55;100.00
61119;BME280;51448;51.660;5.824;2023-02-19T03:40:50;101713.75;;;9.53;100.00
61119;BME280;51448;51.660;5.824;2023-02-19T03:43:43;101726.00;;;9.53;100.00
61119;BME280;51448;51.660;5.824;2023-02-19T03:46:24;101719.03;;;9.50;100.00
61119;BME280;51448;51.660;5.824;2023-02-19T03:49:19;101722.53;;;9.49;100.00
61119;BME280;51448;51.660;5.824;2023-02-19T03:51:57;101730.41;;;9.51;100.00
61119;BME280;51448;51.660;5.824;2023-02-19T03:54:56;101742.66;;;9.50;100.00
61119;BME280;51448;51.660;5.824;2023-02-19T03:57:57;101735.66;;;9.51;100.00
61119;BME280;51448;51.660;5.824;2023-02-19T04:00:55;101746.19;;;9.48;100.00
61119;BME280;51448;51.660;5.824;2023-02-19T04:03:40;101749.69;;;9.48;100.00
61119;BME280;51448;51.660;5.824;2023-02-19T04:06:16;101743.53;;;9.49;100.00
61119;BME280;51448;51.660;5.824;2023-02-19T04:08:53;101747.94;;;9.49;100.00
61119;BME280;51448;51.660;5.824;2023-02-19T04:11:26;101757.53;;;9.51;100.00
61119;BME280;51448;51.660;5.824;2023-02-19T04:14:09;101765.41;;;9.53;100.00
61119;BME280;51448;51.660;5.824;2023-02-19T04:16:47;101772.41;;;9.52;100.00
61119;BME280;51448;51.660;5.824;2023-02-19T04:19:20;101768.03;;;9.51;100.00
61119;BME280;51448;51.660;5.824;2023-02-19T04:21:53;101767.16;;;9.51;100.00
61119;BME280;51448;51.660;5.824;2023-02-19T04:24:30;101782.06;;;9.52;100.00
61119;BME280;51448;51.660;5.824;2023-02-19T04:27:04;101781.19;;;9.48;100.00
61119;BME280;51448;51.660;5.824;2023-02-19T04:29:33;101768.06;;;9.46;100.00
61119;BME280;51448;51.660;5.824;2023-02-19T04:32:00;101767.22;;;9.44;100.00
61119;BME280;51448;51.660;5.824;2023-02-19T04:34:28;101769.00;;;9.42;100.00
61119;BME280;51448;51.660;5.824;2023-02-19T04:36:56;101784.75;;;9.42;100.00
61119;BME280;51448;51.660;5.824;2023-02-19T04:39:23;101790.84;;;9.43;100.00
61119;BME280;51448;51.660;5.824;2023-02-19T04:41:51;101797.00;;;9.43;100.00
61119;BME280;51448;51.660;5.824;2023-02-19T04:44:18;101791.75;;;9.40;100.00
61119;BME280;51448;51.660;5.824;2023-02-19T04:46:46;101792.63;;;9.41;100.00
61119;BME280;51448;51.660;5.824;2023-02-19T04:49:14;101804.03;;;9.38;100.00
61119;BME280;51448;51.660;5.824;2023-02-19T04:51:41;101808.41;;;9.38;100.00
61119;BME280;51448;51.660;5.824;2023-02-19T04:54:09;101817.16;;;9.37;100.00
61119;BME280;51448;51.660;5.824;2023-02-19T04:56:36;101820.69;;;9.36;100.00
61119;BME280;51448;51.660;5.824;2023-02-19T04:59:04;101832.06;;;9.36;100.00
61119;BME280;51448;51.660;5.824;2023-02-19T05:01:31;101824.22;;;9.33;100.00
61119;BME280;51448;51.660;5.824;2023-02-19T05:03:59;101836.44;;;9.33;100.00
61119;BME280;51448;51.660;5.824;2023-02-19T05:06:27;101839.97;;;9.32;100.00
61119;BME280;51448;51.660;5.824;2023-02-19T05:08:54;101844.34;;;9.30;100.00
61119;BME280;51448;51.660;5.824;2023-02-19T05:11:22;101841.72;;;9.28;100.00
61119;BME280;51448;51.660;5.824;2023-02-19T05:13:54;101844.34;;;9.26;100.00
61119;BME280;51448;51.660;5.824;2023-02-19T05:16:22;101852.28;;;9.25;100.00
61119;BME280;51448;51.660;5.824;2023-02-19T05:18:50;101854.91;;;9.25;100.00
61119;BME280;51448;51.660;5.824;2023-02-19T05:21:17;101859.25;;;9.24;100.00
61119;BME280;51448;51.660;5.824;2023-02-19T05:23:45;101860.16;;;9.23;100.00
61119;BME280;51448;51.660;5.824;2023-02-19T05:26:15;101860.16;;;9.22;100.00
61119;BME280;51448;51.660;5.824;2023-02-19T05:28:51;101860.16;;;9.20;100.00
61119;BME280;51448;51.660;5.824;2023-02-19T05:31:19;101856.66;;;9.18;100.00
61119;BME280;51448;51.660;5.824;2023-02-19T05:33:48;101857.56;;;9.17;100.00
61119;BME280;51448;51.660;5.824;2023-02-19T05:36:19;101854.94;;;9.16;100.00
61119;BME280;51448;51.660;5.824;2023-02-19T05:38:55;101864.56;;;9.15;100.00
61119;BME280;51448;51.660;5.824;2023-02-19T05:41:25;101858.47;;;9.13;100.00
61119;BME280;51448;51.660;5.824;2023-02-19T05:43:54;101866.31;;;9.13;100.00
61119;BME280;51448;51.660;5.824;2023-02-19T05:46:26;101868.09;;;9.13;100.00
61119;BME280;51448;51.660;5.824;2023-02-19T05:48:58;101864.59;;;9.09;100.00
61119;BME280;51448;51.660;5.824;2023-02-19T05:51:26;101869.84;;;9.09;100.00
61119;BME280;51448;51.660;5.824;2023-02-19T05:53:54;101865.47;;;9.10;100.00
61119;BME280;51448;51.660;5.824;2023-02-19T05:56:35;101868.09;;;9.10;100.00
61119;BME280;51448;51.660;5.824;2023-02-19T05:59:07;101868.09;;;9.08;100.00
61119;BME280;51448;51.660;5.824;2023-02-19T06:01:42;101874.25;;;9.09;100.00
61119;BME280;51448;51.660;5.824;2023-02-19T06:04:10;101874.19;;;9.10;100.00
61119;BME280;51448;51.660;5.824;2023-02-19T06:06:40;101869.84;;;9.09;100.00
61119;BME280;51448;51.660;5.824;2023-02-19T06:09:08;101875.97;;;9.10;100.00
61119;BME280;51448;51.660;5.824;2023-02-19T06:11:37;101882.06;;;9.10;100.00
61119;BME280;51448;51.660;5.824;2023-02-19T06:14:05;101884.69;;;9.10;100.00
61119;BME280;51448;51.660;5.824;2023-02-19T06:16:33;101890.84;;;9.09;100.00
61119;BME280;51448;51.660;5.824;2023-02-19T06:19:01;101896.09;;;9.07;100.00
61119;BME280;51448;51.660;5.824;2023-02-19T06:21:30;101899.63;;;9.06;100.00
61119;BME280;51448;51.660;5.824;2023-02-19T06:23:58;101899.63;;;9.06;100.00
61119;BME280;51448;51.660;5.824;2023-02-19T06:26:25;101899.63;;;9.05;100.00
61119;BME280;51448;51.660;5.824;2023-02-19T06:28:53;101897.00;;;9.05;100.00
61119;BME280;51448;51.660;5.824;2023-02-19T06:31:21;101899.63;;;9.05;100.00
61119;BME280;51448;51.660;5.824;2023-02-19T06:33:49;101904.88;;;9.05;100.00
61119;BME280;51448;51.660;5.824;2023-02-19T06:36:19;101912.72;;;9.05;100.00
61119;BME280;51448;51.660;5.824;2023-02-19T06:38:47;101925.00;;;9.04;100.00
61119;BME280;51448;51.660;5.824;2023-02-19T06:41:15;101931.09;;;9.03;100.00
61119;BME280;51448;51.660;5.824;2023-02-19T06:43:43;101934.59;;;9.04;100.00
61119;BME280;51448;51.660;5.824;2023-02-19T06:46:11;101935.50;;;9.04;100.00
61119;BME280;51448;51.660;5.824;2023-02-19T06:48:42;101940.75;;;9.04;100.00
61119;BME280;51448;51.660;5.824;2023-02-19T06:51:16;101942.47;;;9.04;100.00
61119;BME280;51448;51.660;5.824;2023-02-19T06:53:45;101948.59;;;9.03;100.00
61119;BME280;51448;51.660;5.824;2023-02-19T06:56:26;101938.13;;;9.03;100.00
61119;BME280;51448;51.660;5.824;2023-02-19T06:58:58;101945.97;;;9.01;100.00
61119;BME280;51448;51.660;5.824;2023-02-19T07:01:29;101942.50;;;9.01;100.00
61119;BME280;51448;51.660;5.824;2023-02-19T07:03:58;101946.84;;;9.02;100.00
61119;BME280;51448;51.660;5.824;2023-02-19T07:06:27;101946.84;;;9.02;100.00
61119;BME280;51448;51.660;5.824;2023-02-19T07:08:56;101960.84;;;9.04;100.00
61119;BME280;51448;51.660;5.824;2023-02-19T07:11:26;101961.72;;;9.03;100.00
61119;BME280;51448;51.660;5.824;2023-02-19T07:13:58;101971.34;;;9.04;100.00
61119;BME280;51448;51.660;5.824;2023-02-19T07:16:27;101973.09;;;9.05;100.00
61119;BME280;51448;51.660;5.824;2023-02-19T07:18:56;101972.19;;;9.06;100.00
61119;BME280;51448;51.660;5.824;2023-02-19T07:21:25;101976.59;;;9.07;100.00
61119;BME280;51448;51.660;5.824;2023-02-19T07:23:54;101983.59;;;9.06;100.00
61119;BME280;51448;51.660;5.824;2023-02-19T07:26:22;101990.56;;;9.07;100.00
61119;BME280;51448;51.660;5.824;2023-02-19T07:28:50;101988.81;;;9.08;100.00
61119;BME280;51448;51.660;5.824;2023-02-19T07:31:20;101999.31;;;9.11;100.00
61119;BME280;51448;51.660;5.824;2023-02-19T07:33:51;101999.31;;;9.11;100.00
61119;BME280;51448;51.660;5.824;2023-02-19T07:36:20;102002.81;;;9.13;100.00
61119;BME280;51448;51.660;5.824;2023-02-19T07:38:55;102015.03;;;9.14;100.00
61119;BME280;51448;51.660;5.824;2023-02-19T07:41:25;102018.56;;;9.13;100.00
61119;BME280;51448;51.660;5.824;2023-02-19T07:43:56;102013.31;;;9.13;100.00
61119;BME280;51448;51.660;5.824;2023-02-19T07:46:24;102022.06;;;9.14;100.00
61119;BME280;51448;51.660;5.824;2023-02-19T07:48:52;102026.44;;;9.15;100.00
61119;BME280;51448;51.660;5.824;2023-02-19T07:51:19;102036.03;;;9.14;100.00
61119;BME280;51448;51.660;5.824;2023-02-19T07:53:48;102036.91;;;9.16;100.00
61119;BME280;51448;51.660;5.824;2023-02-19T07:56:30;102042.16;;;9.16;100.00
61119;BME280;51448;51.660;5.824;2023-02-19T07:58:59;102044.78;;;9.18;100.00
61119;BME280;51448;51.660;5.824;2023-02-19T08:01:26;102050.94;;;9.17;100.00
61119;BME280;51448;51.660;5.824;2023-02-19T08:04:13;102056.19;;;9.15;100.00
61119;BME280;51448;51.660;5.824;2023-02-19T08:06:42;102050.91;;;9.14;100.00
61119;BME280;51448;51.660;5.824;2023-02-19T08:09:09;102067.56;;;9.11;100.00
61119;BME280;51448;51.660;5.824;2023-02-19T08:11:37;102070.19;;;9.11;100.00
61119;BME280;51448;51.660;5.824;2023-02-19T08:14:25;102074.56;;;9.07;100.00
61119;BME280;51448;51.660;5.824;2023-02-19T08:16:53;102074.56;;;9.06;100.00
61119;BME280;51448;51.660;5.824;2023-02-19T08:19:22;102076.31;;;9.05;100.00
61119;BME280;51448;51.660;5.824;2023-02-19T08:21:50;102079.81;;;9.06;100.00
61119;BME280;51448;51.660;5.824;2023-02-19T08:24:17;102083.28;;;9.08;100.00
61119;BME280;51448;51.660;5.824;2023-02-19T08:26:45;102085.06;;;9.09;100.00
61119;BME280;51448;51.660;5.824;2023-02-19T08:29:12;102085.94;;;9.10;100.00
61119;BME280;51448;51.660;5.824;2023-02-19T08:31:40;102085.06;;;9.09;100.00
61119;BME280;51448;51.660;5.824;2023-02-19T08:34:08;102081.53;;;9.10;100.00
61119;BME280;51448;51.660;5.824;2023-02-19T08:36:36;102084.19;;;9.15;100.00
61119;BME280;51448;51.660;5.824;2023-02-19T08:39:04;102088.53;;;9.17;100.00
61119;BME280;51448;51.660;5.824;2023-02-19T08:41:31;102089.41;;;9.21;100.00
61119;BME280;51448;51.660;5.824;2023-02-19T08:43:59;102086.75;;;9.22;100.00
61119;BME280;51448;51.660;5.824;2023-02-19T08:46:26;102080.63;;;9.26;100.00
61119;BME280;51448;51.660;5.824;2023-02-19T08:48:54;102097.28;;;9.25;100.00
61119;BME280;51448;51.660;5.824;2023-02-19T08:51:21;102098.13;;;9.26;100.00
61119;BME280;51448;51.660;5.824;2023-02-19T08:53:49;102105.13;;;9.29;100.00
61119;BME280;51448;51.660;5.824;2023-02-19T08:56:16;102113.00;;;9.32;100.00
61119;BME280;51448;51.660;5.824;2023-02-19T08:58:44;102118.25;;;9.35;100.00
61119;BME280;51448;51.660;5.824;2023-02-19T09:01:14;102124.38;;;9.38;100.00
61119;BME280;51448;51.660;5.824;2023-02-19T09:03:45;102113.00;;;9.38;100.00
61119;BME280;51448;51.660;5.824;2023-02-19T09:06:17;102120.88;;;9.38;100.00
61119;BME280;51448;51.660;5.824;2023-02-19T09:08:46;102128.75;;;9.38;100.00
61119;BME280;51448;51.660;5.824;2023-02-19T09:11:14;102129.63;;;9.37;100.00
61119;BME280;51448;51.660;5.824;2023-02-19T09:13:42;102129.63;;;9.35;100.00
61119;BME280;51448;51.660;5.824;2023-02-19T09:16:10;102138.38;;;9.34;100.00
61119;BME280;51448;51.660;5.824;2023-02-19T09:18:38;102131.41;;;9.33;100.00
61119;BME280;51448;51.660;5.824;2023-02-19T09:21:06;102138.38;;;9.33;100.00
61119;BME280;51448;51.660;5.824;2023-02-19T09:23:34;102132.25;;;9.37;100.00
61119;BME280;51448;51.660;5.824;2023-02-19T09:26:04;102134.84;;;9.43;100.00
61119;BME280;51448;51.660;5.824;2023-02-19T09:28:36;102118.22;;;9.47;100.00
61119;BME280;51448;51.660;5.824;2023-02-19T09:31:13;102123.47;;;9.50;100.00
61119;BME280;51448;51.660;5.824;2023-02-19T09:33:46;102131.31;;;9.56;100.00
61119;BME280;51448;51.660;5.824;2023-02-19T09:36:15;102134.78;;;9.63;100.00
61119;BME280;51448;51.660;5.824;2023-02-19T09:38:44;102136.53;;;9.69;100.00
61119;BME280;51448;51.660;5.824;2023-02-19T09:41:31;102148.75;;;9.79;100.00
61119;BME280;51448;51.660;5.824;2023-02-19T09:44:03;102147.88;;;9.83;100.00
61119;BME280;51448;51.660;5.824;2023-02-19T09:46:46;102149.59;;;9.84;100.00
61119;BME280;51448;51.660;5.824;2023-02-19T09:49:27;102150.50;;;9.80;100.00
61119;BME280;51448;51.660;5.824;2023-02-19T09:52:06;102160.13;;;9.78;100.00
61119;BME280;51448;51.660;5.824;2023-02-19T09:54:36;102182.94;;;9.73;100.00
61119;BME280;51448;51.660;5.824;2023-02-19T09:57:11;102195.19;;;9.74;100.00
61119;BME280;51448;51.660;5.824;2023-02-19T10:00:04;102196.94;;;9.72;100.00
61119;BME280;51448;51.660;5.824;2023-02-19T10:02:38;102204.84;;;9.62;100.00
61119;BME280;51448;51.660;5.824;2023-02-19T10:05:11;102190.88;;;9.56;100.00
61119;BME280;51448;51.660;5.824;2023-02-19T10:07:42;102207.50;;;9.50;100.00
61119;BME280;51448;51.660;5.824;2023-02-19T10:12:49;102216.28;;;9.46;100.00
61119;BME280;51448;51.660;5.824;2023-02-19T10:15:36;102224.13;;;9.44;100.00
61119;BME280;51448;51.660;5.824;2023-02-19T10:18:07;102231.16;;;9.42;100.00
61119;BME280;51448;51.660;5.824;2023-02-19T10:20:37;102228.53;;;9.44;100.00
61119;BME280;51448;51.660;5.824;2023-02-19T10:23:09;102229.41;;;9.46;100.00
61119;BME280;51448;51.660;5.824;2023-02-19T10:25:52;102247.78;;;9.48;100.00
61119;BME280;51448;51.660;5.824;2023-02-19T10:28:39;102256.53;;;9.48;100.00
61119;BME280;51448;51.660;5.824;2023-02-19T10:31:19;102258.28;;;9.52;100.00
61119;BME280;51448;51.660;5.824;2023-02-19T10:33:58;102267.88;;;9.59;100.00
61119;BME280;51448;51.660;5.824;2023-02-19T10:36:33;102260.91;;;9.66;100.00
61119;BME280;51448;51.660;5.824;2023-02-19T10:42:20;102261.75;;;9.79;100.00
61119;BME280;51448;51.660;5.824;2023-02-19T10:44:55;102258.22;;;9.83;100.00
61119;BME280;51448;51.660;5.824;2023-02-19T10:47:30;102272.22;;;9.90;100.00
61119;BME280;51448;51.660;5.824;2023-02-19T10:49:59;102277.47;;;9.97;100.00
61119;BME280;51448;51.660;5.824;2023-02-19T10:52:32;102276.56;;;10.09;100.00
61119;BME280;51448;51.660;5.824;2023-02-19T10:57:45;102284.38;;;10.23;100.00
61119;BME280;51448;51.660;5.824;2023-02-19T11:00:27;102292.28;;;10.27;100.00
61119;BME280;51448;51.660;5.824;2023-02-19T11:05:58;102288.75;;;10.42;100.00
61119;BME280;51448;51.660;5.824;2023-02-19T11:08:33;102279.94;;;10.50;100.00
61119;BME280;51448;51.660;5.824;2023-02-19T11:11:24;102290.44;;;10.57;100.00
61119;BME280;51448;51.660;5.824;2023-02-19T11:13:59;102279.91;;;10.59;100.00
61119;BME280;51448;51.660;5.824;2023-02-19T11:16:44;102271.16;;;10.57;100.00
61119;BME280;51448;51.660;5.824;2023-02-19T11:22:37;102267.72;;;10.38;100.00
61119;BME280;51448;51.660;5.824;2023-02-19T11:28:18;102271.25;;;10.27;100.00
61119;BME280;51448;51.660;5.824;2023-02-19T11:30:50;102260.75;;;10.18;100.00
61119;BME280;51448;51.660;5.824;2023-02-19T11:33:24;102259.88;;;10.16;100.00
61119;BME280;51448;51.660;5.824;2023-02-19T11:38:42;102266.88;;;10.20;100.00
61119;BME280;51448;51.660;5.824;2023-02-19T11:41:20;102266.00;;;10.26;100.00
61119;BME280;51448;51.660;5.824;2023-02-19T11:47:00;102260.75;;;10.32;100.00
61119;BME280;51448;51.660;5.824;2023-02-19T11:49:50;102270.38;;;10.32;100.00
61119;BME280;51448;51.660;5.824;2023-02-19T11:52:37;102271.25;;;10.27;100.00
61119;BME280;51448;51.660;5.824;2023-02-19T11:55:24;102270.38;;;10.21;100.00
61119;BME280;51448;51.660;5.824;2023-02-19T12:01:23;102287.94;;;10.06;100.00
61119;BME280;51448;51.660;5.824;2023-02-19T12:07:57;102287.13;;;9.89;100.00
61119;BME280;51448;51.660;5.824;2023-02-19T12:20:07;102281.88;;;9.84;100.00
61119;BME280;51448;51.660;5.824;2023-02-19T12:23:00;102285.38;;;9.90;100.00
61119;BME280;51448;51.660;5.824;2023-02-19T12:37:43;102280.91;;;10.16;100.00
61119;BME280;51448;51.660;5.824;2023-02-19T12:46:02;102276.50;;;10.35;100.00
61119;BME280;51448;51.660;5.824;2023-02-19T12:51:12;102272.97;;;10.44;100.00
61119;BME280;51448;51.660;5.824;2023-02-19T12:53:57;102272.97;;;10.44;100.00
61119;BME280;51448;51.660;5.824;2023-02-19T12:59:23;102301.91;;;10.41;100.00
61119;BME280;51448;51.660;5.824;2023-02-19T13:01:59;102310.72;;;10.32;100.00
61119;BME280;51448;51.660;5.824;2023-02-19T13:07:43;102302.81;;;10.18;100.00
61119;BME280;51448;51.660;5.824;2023-02-19T13:10:30;102300.19;;;10.21;100.00
61119;BME280;51448;51.660;5.824;2023-02-19T13:13:06;102298.41;;;10.28;100.00
61119;BME280;51448;51.660;5.824;2023-02-19T13:15:51;102298.44;;;10.34;100.00
61119;BME280;51448;51.660;5.824;2023-02-19T13:18:34;102306.31;;;10.36;100.00
61119;BME280;51448;51.660;5.824;2023-02-19T13:21:10;102308.06;;;10.31;100.00
61119;BME280;51448;51.660;5.824;2023-02-19T13:24:04;102316.81;;;10.28;100.00
61119;BME280;51448;51.660;5.824;2023-02-19T13:26:44;102322.06;;;10.25;100.00
61119;BME280;51448;51.660;5.824;2023-02-19T13:32:45;102330.00;;;10.22;100.00
61119;BME280;51448;51.660;5.824;2023-02-19T13:38:09;102328.25;;;10.18;100.00
61119;BME280;51448;51.660;5.824;2023-02-19T13:40:41;102340.50;;;10.13;100.00
61119;BME280;51448;51.660;5.824;2023-02-19T13:43:32;102356.31;;;10.08;100.00
61119;BME280;51448;51.660;5.824;2023-02-19T13:46:10;102353.69;;;10.03;100.00
61119;BME280;51448;51.660;5.824;2023-02-19T13:48:43;102365.06;;;10.02;100.00
61119;BME280;51448;51.660;5.824;2023-02-19T14:09:45;102354.56;;;9.78;99.68
61119;BME280;51448;51.660;5.824;2023-02-19T14:14:55;102366.00;;;9.72;99.48
61119;BME280;51448;51.660;5.824;2023-02-19T14:30:32;102387.84;;;9.40;100.00
61119;BME280;51448;51.660;5.824;2023-02-19T14:33:08;102387.84;;;9.37;100.00
61119;BME280;51448;51.660;5.824;2023-02-19T14:35:39;102397.44;;;9.37;100.00
61119;BME280;51448;51.660;5.824;2023-02-19T14:38:19;102394.84;;;9.35;100.00
61119;BME280;51448;51.660;5.824;2023-02-19T14:40:54;102386.06;;;9.35;100.00
61119;BME280;51448;51.660;5.824;2023-02-19T14:43:24;102377.31;;;9.39;100.00
61119;BME280;51448;51.660;5.824;2023-02-19T14:45:55;102379.06;;;9.37;100.00
61119;BME280;51448;51.660;5.824;2023-02-19T14:48:33;102379.09;;;9.40;100.00
61119;BME280;51448;51.660;5.824;2023-02-19T14:51:13;102383.47;;;9.44;100.00
61119;BME280;51448;51.660;5.824;2023-02-19T14:54:01;102383.47;;;9.44;100.00
61119;BME280;51448;51.660;5.824;2023-02-19T14:56:47;102364.19;;;9.45;100.00
61119;BME280;51448;51.660;5.824;2023-02-19T15:01:59;102355.44;;;9.44;100.00
61119;BME280;51448;51.660;5.824;2023-02-19T15:04:34;102352.81;;;9.43;100.00
61119;BME280;51448;51.660;5.824;2023-02-19T15:07:07;102343.19;;;9.42;100.00
61119;BME280;51448;51.660;5.824;2023-02-19T15:09:40;102344.06;;;9.41;100.00
61119;BME280;51448;51.660;5.824;2023-02-19T15:12:20;102335.31;;;9.39;100.00
61119;BME280;51448;51.660;5.824;2023-02-19T15:14:55;102333.56;;;9.36;100.00
61119;BME280;51448;51.660;5.824;2023-02-19T15:17:33;102321.31;;;9.34;100.00
61119;BME280;51448;51.660;5.824;2023-02-19T15:20:09;102318.66;;;9.32;100.00
61119;BME280;51448;51.660;5.824;2023-02-19T15:22:43;102319.53;;;9.28;100.00
61119;BME280;51448;51.660;5.824;2023-02-19T15:25:17;102319.53;;;9.23;100.00
61119;BME280;51448;51.660;5.824;2023-02-19T15:27:48;102326.53;;;9.21;100.00
61119;BME280;51448;51.660;5.824;2023-02-19T15:30:22;102329.16;;;9.21;100.00